createdAt,value
2022-11-27T00:02:20.656Z,98.21
2022-11-27T00:05:33.552Z,98.89
2022-11-27T00:08:46.509Z,98.88
2022-11-27T00:11:58.930Z,99.35
2022-11-27T00:15:16.950Z,99.36
2022-11-27T00:18:26.712Z,98.99
2022-11-27T00:21:41.476Z,99.47
2022-11-27T00:24:54.048Z,99.34
2022-11-27T00:28:06.499Z,98.77
2022-11-27T00:31:23.354Z,99.32
2022-11-27T00:34:36.021Z,99.22
2022-11-27T00:37:48.594Z,99.18
2022-11-27T00:41:02.851Z,98.73
2022-11-27T00:44:15.623Z,99.26
2022-11-27T00:47:28.388Z,97.83
2022-11-27T00:50:41.212Z,99.22
2022-11-27T00:53:54.678Z,98.80
2022-11-27T00:57:07.256Z,99.87
2022-11-27T01:00:21.482Z,99.23
2022-11-27T01:03:35.473Z,98.87
2022-11-27T01:06:48.842Z,98.88
2022-11-27T01:10:01.256Z,98.75
2022-11-27T01:13:13.974Z,98.89
2022-11-27T01:16:29.077Z,98.75
2022-11-27T01:19:42.440Z,98.93
2022-11-27T01:22:55.299Z,98.84
2022-11-27T01:26:10.372Z,98.84
2022-11-27T01:29:22.989Z,99.98
2022-11-27T01:32:35.451Z,100.00
2022-11-27T01:35:47.788Z,99.72
2022-11-27T01:39:00.940Z,99.80
2022-11-27T01:42:14.997Z,100.00
2022-11-27T01:45:28.526Z,99.78
2022-11-27T01:48:41.651Z,99.45
2022-11-27T01:51:57.699Z,99.77
2022-11-27T01:55:14.050Z,99.77
2022-11-27T01:58:29.744Z,100.00
2022-11-27T02:01:43.153Z,100.00
2022-11-27T02:04:56.545Z,100.00
2022-11-27T02:08:12.315Z,100.00
2022-11-27T02:11:28.235Z,99.80
2022-11-27T02:14:44.120Z,99.78
2022-11-27T02:18:00.795Z,100.00
2022-11-27T02:21:18.067Z,99.91
2022-11-27T02:24:51.830Z,100.00
2022-11-27T02:28:22.165Z,99.66
2022-11-27T02:31:39.505Z,99.94
2022-11-27T02:34:56.253Z,99.67
2022-11-27T02:38:12.246Z,99.97
2022-11-27T02:41:28.411Z,100.00
2022-11-27T02:44:44.488Z,99.99
2022-11-27T02:47:58.127Z,100.00
2022-11-27T02:51:12.213Z,99.93
2022-11-27T02:54:28.172Z,99.81
2022-11-27T02:57:43.193Z,99.53
2022-11-27T03:00:56.780Z,100.00
2022-11-27T03:04:13.139Z,100.00
2022-11-27T03:07:30.641Z,100.00
2022-11-27T03:10:50.279Z,99.55
2022-11-27T03:14:04.972Z,100.00
2022-11-27T03:17:24.192Z,100.00
2022-11-27T03:20:40.438Z,99.73
2022-11-27T03:23:53.293Z,100.00
2022-11-27T03:27:07.198Z,100.00
2022-11-27T03:30:20.945Z,100.00
2022-11-27T03:33:33.932Z,100.00
2022-11-27T03:36:46.621Z,100.00
2022-11-27T03:39:59.489Z,100.00
2022-11-27T03:43:16.114Z,100.00
2022-11-27T03:46:32.647Z,100.00
2022-11-27T03:49:52.405Z,100.00
2022-11-27T03:53:11.879Z,100.00
2022-11-27T03:56:29.259Z,99.95
2022-11-27T03:59:49.296Z,100.00
2022-11-27T04:03:02.131Z,99.99
2022-11-27T04:06:15.041Z,100.00
2022-11-27T04:09:27.756Z,99.77
2022-11-27T04:12:40.271Z,100.00
2022-11-27T04:15:52.798Z,100.00
2022-11-27T04:19:05.459Z,100.00
2022-11-27T04:22:18.003Z,100.00
2022-11-27T04:25:33.524Z,100.00
2022-11-27T04:28:46.213Z,99.97
2022-11-27T04:31:58.733Z,100.00
2022-11-27T04:35:11.999Z,99.37
2022-11-27T04:38:25.189Z,99.55
2022-11-27T04:41:37.913Z,100.00
2022-11-27T04:44:51.652Z,100.00
2022-11-27T04:48:04.167Z,100.00
2022-11-27T04:51:16.847Z,100.00
2022-11-27T04:54:29.850Z,100.00
2022-11-27T04:57:42.470Z,100.00
2022-11-27T05:00:55.168Z,100.00
2022-11-27T05:04:07.839Z,100.00
2022-11-27T05:07:20.581Z,100.00
2022-11-27T05:10:33.346Z,100.00
2022-11-27T05:13:46.774Z,100.00
2022-11-27T05:17:02.220Z,100.00
2022-11-27T05:20:16.563Z,100.00
2022-11-27T05:23:31.697Z,99.87
2022-11-27T05:26:45.484Z,100.00
2022-11-27T05:29:58.141Z,99.89
2022-11-27T05:33:10.847Z,99.96
2022-11-27T05:36:23.224Z,100.00
2022-11-27T05:39:36.148Z,100.00
2022-11-27T05:42:48.788Z,99.88
2022-11-27T05:46:01.582Z,99.72
2022-11-27T05:49:15.326Z,100.00
2022-11-27T05:52:28.319Z,100.00
2022-11-27T05:55:40.859Z,100.00
2022-11-27T05:58:54.818Z,100.00
2022-11-27T06:02:07.266Z,100.00
2022-11-27T06:05:20.281Z,100.00
2022-11-27T06:08:32.657Z,100.00
2022-11-27T06:11:46.577Z,100.00
2022-11-27T06:14:59.181Z,100.00
2022-11-27T06:18:12.253Z,100.00
2022-11-27T06:21:25.579Z,100.00
2022-11-27T06:24:38.252Z,100.00
2022-11-27T06:27:51.370Z,100.00
2022-11-27T06:31:04.048Z,100.00
2022-11-27T06:34:18.905Z,100.00
2022-11-27T06:37:31.606Z,100.00
2022-11-27T06:40:44.342Z,100.00
2022-11-27T06:43:57.179Z,100.00
2022-11-27T06:47:09.763Z,100.00
2022-11-27T06:50:22.871Z,100.00
2022-11-27T06:53:35.970Z,100.00
2022-11-27T06:56:48.752Z,100.00
2022-11-27T07:00:01.571Z,100.00
2022-11-27T07:03:13.883Z,100.00
2022-11-27T07:06:31.722Z,100.00
2022-11-27T07:09:44.239Z,100.00
2022-11-27T07:12:56.846Z,100.00
2022-11-27T07:16:11.746Z,100.00
2022-11-27T07:19:24.437Z,100.00
2022-11-27T07:22:38.788Z,100.00
2022-11-27T07:25:51.507Z,100.00
2022-11-27T07:29:04.246Z,100.00
2022-11-27T07:32:16.635Z,100.00
2022-11-27T07:35:29.380Z,100.00
2022-11-27T07:38:42.071Z,100.00
2022-11-27T07:41:57.216Z,100.00
2022-11-27T07:45:09.239Z,100.00
2022-11-27T07:48:21.895Z,100.00
2022-11-27T07:51:35.094Z,99.11
2022-11-27T07:54:47.820Z,99.35
2022-11-27T07:58:00.522Z,99.59
2022-11-27T08:01:15.877Z,100.00
2022-11-27T08:04:28.493Z,100.00
2022-11-27T08:07:41.424Z,100.00
2022-11-27T08:10:54.309Z,100.00
2022-11-27T08:14:09.035Z,100.00
2022-11-27T08:17:22.274Z,100.00
2022-11-27T08:20:35.084Z,100.00
2022-11-27T08:23:47.864Z,100.00
2022-11-27T08:27:00.520Z,99.57
2022-11-27T08:30:15.789Z,99.76
2022-11-27T08:33:28.550Z,99.70
2022-11-27T08:36:41.234Z,100.00
2022-11-27T08:39:53.646Z,100.00
2022-11-27T08:43:07.239Z,97.86
2022-11-27T08:46:19.912Z,99.06
2022-11-27T08:49:32.683Z,97.79
2022-11-27T08:52:45.359Z,98.31
2022-11-27T08:55:57.971Z,98.06
2022-11-27T08:59:10.772Z,96.38
2022-11-27T09:02:23.594Z,98.06
2022-11-27T09:05:37.442Z,97.29
2022-11-27T09:08:50.530Z,97.74
2022-11-27T09:12:03.093Z,98.15
2022-11-27T09:15:17.742Z,97.09
2022-11-27T09:18:30.670Z,98.47
2022-11-27T09:21:43.779Z,97.86
2022-11-27T09:24:56.410Z,96.85
2022-11-27T09:28:10.564Z,98.28
2022-11-27T09:31:23.841Z,98.56
2022-11-27T09:34:37.593Z,97.59
2022-11-27T09:37:50.353Z,97.81
2022-11-27T09:41:06.347Z,98.39
2022-11-27T09:44:35.861Z,97.85
2022-11-27T09:47:54.654Z,97.53
2022-11-27T09:51:10.805Z,97.66
2022-11-27T09:54:26.740Z,97.53
2022-11-27T09:57:42.640Z,97.30
2022-11-27T10:00:55.425Z,97.16
2022-11-27T10:04:09.778Z,97.78
2022-11-27T10:07:29.388Z,97.55
2022-11-27T10:10:49.726Z,97.78
2022-11-27T10:14:17.638Z,98.46
2022-11-27T10:17:34.546Z,96.77
